createdAt,value
2023-03-10T00:01:47.513Z,12.50
2023-03-10T00:04:19.180Z,11.50
2023-03-10T00:07:10.199Z,9.70
2023-03-10T00:10:17.223Z,9.60
2023-03-10T00:12:53.633Z,11.80
2023-03-10T00:15:26.748Z,12.30
2023-03-10T00:18:01.221Z,16.60
2023-03-10T00:20:32.273Z,11.40
2023-03-10T00:23:04.485Z,13.10
2023-03-10T00:25:36.522Z,12.80
2023-03-10T00:28:07.208Z,11.10
2023-03-10T00:30:37.425Z,8.90
2023-03-10T00:33:09.974Z,10.00
2023-03-10T00:36:47.814Z,28.70
2023-03-10T00:52:34.121Z,7.50
2023-03-10T00:55:26.609Z,10.90
2023-03-10T00:57:59.173Z,11.10
2023-03-10T01:00:51.827Z,10.00
2023-03-10T01:03:43.952Z,13.10
2023-03-10T01:06:23.103Z,54.90
2023-03-10T01:09:15.070Z,10.30
2023-03-10T01:11:48.958Z,10.60
2023-03-10T01:14:40.131Z,18.30
2023-03-10T01:17:15.584Z,9.40
2023-03-10T01:19:45.035Z,9.00
2023-03-10T01:22:15.305Z,9.60
2023-03-10T01:24:45.842Z,9.90
2023-03-10T01:27:18.233Z,10.00
2023-03-10T01:29:51.601Z,15.90
2023-03-10T01:33:06.520Z,14.40
2023-03-10T01:40:27.772Z,10.20
2023-03-10T01:43:26.121Z,17.00
2023-03-10T01:46:38.704Z,10.20
2023-03-10T01:49:47.079Z,9.60
2023-03-10T01:53:12.877Z,10.00
2023-03-10T01:55:52.829Z,12.50
2023-03-10T01:58:49.835Z,10.50
2023-03-10T02:02:35.905Z,11.40
2023-03-10T02:05:58.049Z,14.80
2023-03-10T02:08:34.967Z,10.50
2023-03-10T02:11:11.672Z,8.70
2023-03-10T02:19:55.857Z,29.50
2023-03-10T02:23:05.708Z,12.30
2023-03-10T02:26:40.841Z,9.90
2023-03-10T02:30:28.807Z,8.70
2023-03-10T02:33:06.131Z,17.80
2023-03-10T02:36:35.616Z,18.90
2023-03-10T02:39:47.438Z,10.20
2023-03-10T02:58:50.141Z,19.70
2023-03-10T03:05:06.462Z,10.40
2023-03-10T03:19:33.170Z,11.90
2023-03-10T03:23:13.682Z,11.10
2023-03-10T03:29:57.195Z,25.00
2023-03-10T03:32:31.223Z,11.10
2023-03-10T03:35:22.133Z,10.90
2023-03-10T03:38:00.103Z,13.90
2023-03-10T03:40:53.941Z,10.50
2023-03-10T03:43:44.665Z,11.50
2023-03-10T03:46:21.054Z,10.30
2023-03-10T03:49:02.669Z,11.00
2023-03-10T03:52:38.456Z,13.40
2023-03-10T03:56:45.434Z,12.10
2023-03-10T04:09:43.046Z,12.00
2023-03-10T04:16:04.888Z,10.20
2023-03-10T04:19:36.048Z,9.30
2023-03-10T04:26:52.713Z,15.20
2023-03-10T04:29:25.240Z,14.50
2023-03-10T04:32:05.336Z,12.30
2023-03-10T04:34:38.642Z,11.70
2023-03-10T04:37:10.815Z,16.40
2023-03-10T04:39:41.167Z,13.40
2023-03-10T04:42:14.599Z,15.70
2023-03-10T04:44:47.447Z,13.10
2023-03-10T04:47:18.205Z,16.00
2023-03-10T04:49:50.897Z,11.40
2023-03-10T04:52:50.346Z,12.80
2023-03-10T04:55:22.173Z,13.40
2023-03-10T04:57:54.665Z,18.30
2023-03-10T05:00:29.756Z,13.10
2023-03-10T05:06:57.848Z,16.40
2023-03-10T05:13:43.347Z,15.60
2023-03-10T05:16:34.296Z,16.40
2023-03-10T05:19:08.649Z,44.10
2023-03-10T05:21:40.230Z,21.60
2023-03-10T05:24:12.866Z,14.60
2023-03-10T05:26:42.800Z,15.30
2023-03-10T05:29:13.084Z,11.30
2023-03-10T05:31:48.802Z,12.90
2023-03-10T05:36:54.923Z,17.30
2023-03-10T05:39:26.359Z,15.40
2023-03-10T05:41:58.681Z,14.00
2023-03-10T05:44:36.109Z,13.80
2023-03-10T05:47:30.041Z,11.90
2023-03-10T05:54:00.960Z,14.60
2023-03-10T05:56:54.908Z,12.20
2023-03-10T05:59:57.940Z,51.00
2023-03-10T06:02:32.796Z,12.90
2023-03-10T06:05:05.814Z,12.50
2023-03-10T06:07:38.304Z,10.70
2023-03-10T06:10:08.582Z,15.90
2023-03-10T06:12:38.656Z,11.00
2023-03-10T06:15:09.951Z,11.90
2023-03-10T06:17:42.466Z,32.80
2023-03-10T06:20:15.901Z,10.30
2023-03-10T06:22:49.676Z,13.30
2023-03-10T06:25:22.334Z,10.60
2023-03-10T06:27:56.733Z,13.00
2023-03-10T06:30:26.692Z,10.10
2023-03-10T06:32:59.528Z,10.20
2023-03-10T06:35:33.967Z,27.40
2023-03-10T06:38:03.165Z,12.30
2023-03-10T06:40:34.726Z,13.30
2023-03-10T06:43:06.748Z,10.40
2023-03-10T06:45:36.426Z,15.10
2023-03-10T06:48:07.915Z,13.40
2023-03-10T06:50:50.289Z,11.20
2023-03-10T06:53:24.007Z,10.40
2023-03-10T06:56:00.859Z,13.60
2023-03-10T06:58:31.571Z,13.50
2023-03-10T07:01:01.168Z,9.50
2023-03-10T07:03:31.353Z,10.20
2023-03-10T07:06:01.896Z,9.30
2023-03-10T07:08:34.234Z,11.40
2023-03-10T07:11:03.648Z,8.20
2023-03-10T07:13:32.751Z,8.80
2023-03-10T07:16:02.254Z,22.40
2023-03-10T07:18:31.829Z,9.80
2023-03-10T07:21:01.911Z,10.80
2023-03-10T07:23:31.589Z,10.60
2023-03-10T07:26:09.452Z,20.70
2023-03-10T07:29:00.933Z,28.80
2023-03-10T07:31:46.328Z,8.80
2023-03-10T07:34:18.374Z,12.80
2023-03-10T07:36:49.437Z,8.70
2023-03-10T07:39:21.141Z,9.50
2023-03-10T07:41:52.589Z,9.60
2023-03-10T07:44:24.901Z,28.20
2023-03-10T07:46:54.751Z,9.10
2023-03-10T07:49:25.993Z,9.40
2023-03-10T07:53:09.597Z,22.70
2023-03-10T07:55:40.318Z,14.40
2023-03-10T07:58:13.283Z,9.30
2023-03-10T08:00:45.217Z,11.30
2023-03-10T08:03:15.473Z,9.50
2023-03-10T08:05:48.591Z,12.10
2023-03-10T08:08:19.221Z,8.70
2023-03-10T08:10:52.468Z,9.40
2023-03-10T08:13:25.639Z,11.20
2023-03-10T08:15:56.181Z,11.70
2023-03-10T08:18:28.663Z,10.90
2023-03-10T08:21:03.740Z,11.90
2023-03-10T08:23:58.618Z,29.50
2023-03-10T08:26:30.009Z,8.80
2023-03-10T08:29:00.926Z,54.70
2023-03-10T08:31:30.827Z,11.00
2023-03-10T08:34:02.493Z,7.50
2023-03-10T08:36:33.796Z,10.50
2023-03-10T08:39:06.256Z,9.30
2023-03-10T08:41:42.961Z,9.90
2023-03-10T08:44:16.248Z,8.90
2023-03-10T08:46:48.862Z,9.20
2023-03-10T08:49:23.279Z,8.30
2023-03-10T08:51:56.350Z,9.00
2023-03-10T08:54:27.818Z,11.90
2023-03-10T08:56:57.860Z,14.40
2023-03-10T08:59:29.138Z,7.90
2023-03-10T09:01:59.369Z,11.40
2023-03-10T09:04:31.376Z,11.10
2023-03-10T09:07:02.307Z,11.80
2023-03-10T09:09:34.413Z,10.00
2023-03-10T09:12:07.436Z,26.60
2023-03-10T09:14:38.613Z,39.20
2023-03-10T09:17:08.626Z,9.80
2023-03-10T09:19:39.508Z,17.70
2023-03-10T09:22:11.092Z,8.50
2023-03-10T09:24:40.566Z,7.00
2023-03-10T09:27:12.188Z,11.50
2023-03-10T09:29:43.619Z,10.50
2023-03-10T09:32:15.471Z,9.00
2023-03-10T09:34:51.387Z,7.90
2023-03-10T09:37:23.309Z,10.20
2023-03-10T09:39:54.052Z,7.70
2023-03-10T09:42:38.384Z,7.70
2023-03-10T09:45:25.356Z,11.00
2023-03-10T09:50:52.724Z,7.50
2023-03-10T09:53:54.063Z,9.40
2023-03-10T09:56:32.181Z,9.10
2023-03-10T09:59:13.557Z,11.60
2023-03-10T10:01:47.390Z,12.10
2023-03-10T10:04:25.552Z,11.40
2023-03-10T10:06:58.048Z,11.80
2023-03-10T10:09:45.433Z,13.60
2023-03-10T10:12:21.391Z,10.40
2023-03-10T10:14:57.686Z,8.20
2023-03-10T10:17:32.485Z,12.70
2023-03-10T10:20:15.886Z,20.20
2023-03-10T10:22:48.234Z,8.00
2023-03-10T10:25:22.085Z,13.70
2023-03-10T10:27:55.385Z,8.50
2023-03-10T10:30:39.230Z,6.70
2023-03-10T10:33:11.716Z,8.30
2023-03-10T10:35:44.233Z,8.80
2023-03-10T10:38:16.961Z,7.80
2023-03-10T10:40:59.223Z,10.90
2023-03-10T10:43:30.197Z,9.00
2023-03-10T10:46:07.552Z,8.00
2023-03-10T10:48:43.458Z,9.10
2023-03-10T10:51:39.615Z,9.90
2023-03-10T10:54:28.845Z,19.50
2023-03-10T10:57:03.717Z,9.30
2023-03-10T10:59:34.820Z,26.90
2023-03-10T11:02:25.202Z,8.50
2023-03-10T11:05:07.327Z,66.70
2023-03-10T11:07:36.320Z,9.90
2023-03-10T11:10:27.044Z,12.40
2023-03-10T11:13:16.304Z,16.30
2023-03-10T11:16:07.469Z,41.20
2023-03-10T11:18:52.713Z,14.00
2023-03-10T11:21:36.932Z,11.90
2023-03-10T11:24:26.739Z,17.10
2023-03-10T11:27:06.909Z,13.80
2023-03-10T11:29:55.008Z,58.10
2023-03-10T11:32:56.402Z,17.80
2023-03-10T11:35:48.471Z,16.50
2023-03-10T11:38:37.543Z,16.70
2023-03-10T11:41:14.214Z,54.20
2023-03-10T11:43:56.017Z,17.10
2023-03-10T11:46:53.799Z,103.60
2023-03-10T11:49:27.811Z,99.30
2023-03-10T11:52:14.992Z,98.80
2023-03-10T11:54:54.625Z,60.60
2023-03-10T11:57:41.260Z,19.20
2023-03-10T12:00:26.035Z,38.90
2023-03-10T12:03:06.309Z,153.40
2023-03-10T12:05:54.953Z,43.10
2023-03-10T12:08:32.873Z,42.00
2023-03-10T12:11:07.301Z,36.90
2023-03-10T12:13:50.193Z,30.30
2023-03-10T12:16:33.359Z,20.40
2023-03-10T12:19:06.752Z,22.00
2023-03-10T12:21:36.733Z,41.60
2023-03-10T12:24:27.067Z,84.80
2023-03-10T12:27:02.588Z,94.20
2023-03-10T12:29:34.747Z,59.60
2023-03-10T12:32:04.933Z,26.30
2023-03-10T12:34:35.709Z,93.70
2023-03-10T12:37:10.940Z,64.10
2023-03-10T12:39:44.320Z,127.70
2023-03-10T12:42:31.512Z,47.70
2023-03-10T12:45:18.688Z,74.50
2023-03-10T12:47:56.688Z,53.50
2023-03-10T12:50:32.459Z,72.20
2023-03-10T12:53:31.163Z,110.10
2023-03-10T12:56:21.589Z,74.00
2023-03-10T12:59:05.606Z,70.40
2023-03-10T13:01:55.160Z,39.80
2023-03-10T13:04:28.222Z,46.00
2023-03-10T13:07:04.473Z,26.50
2023-03-10T13:09:41.601Z,20.20
2023-03-10T13:12:23.000Z,20.90
2023-03-10T13:14:57.154Z,28.20
2023-03-10T13:17:29.560Z,27.00
2023-03-10T13:20:15.536Z,30.60
2023-03-10T13:22:59.442Z,29.50
2023-03-10T13:25:29.620Z,23.50
2023-03-10T13:28:12.342Z,37.40
2023-03-10T13:30:42.171Z,22.80
2023-03-10T13:33:21.917Z,22.10
2023-03-10T13:35:54.212Z,21.20
2023-03-10T13:38:24.918Z,25.10
2023-03-10T13:41:02.684Z,21.70
2023-03-10T13:43:38.644Z,35.90
2023-03-10T13:46:18.391Z,39.30
2023-03-10T13:48:49.336Z,54.80
2023-03-10T13:51:35.656Z,64.70
2023-03-10T13:54:44.013Z,50.50
2023-03-10T13:57:36.043Z,122.80
2023-03-10T14:00:11.473Z,98.00
2023-03-10T14:02:45.403Z,47.80
2023-03-10T14:05:49.928Z,145.70
2023-03-10T14:08:26.594Z,68.60
2023-03-10T14:11:24.149Z,72.00
2023-03-10T14:13:55.656Z,43.50
2023-03-10T14:16:58.594Z,34.00
2023-03-10T14:19:49.749Z,68.50
2023-03-10T14:22:41.048Z,41.20
2023-03-10T14:25:22.049Z,29.00
2023-03-10T14:28:04.759Z,38.50
2023-03-10T14:30:34.743Z,30.30
2023-03-10T14:33:12.459Z,20.50
2023-03-10T14:35:44.951Z,33.80
2023-03-10T14:38:14.409Z,61.70
2023-03-10T14:40:51.038Z,180.20
2023-03-10T14:43:28.158Z,176.00
2023-03-10T14:46:00.776Z,191.10
2023-03-10T14:48:35.774Z,163.70
2023-03-10T14:51:09.031Z,150.90
2023-03-10T14:53:42.733Z,62.50
2023-03-10T14:56:20.564Z,71.20
2023-03-10T14:58:56.386Z,81.50
2023-03-10T15:01:27.187Z,40.20
2023-03-10T15:03:58.395Z,44.00
2023-03-10T15:06:28.908Z,51.80
2023-03-10T15:09:01.948Z,55.70
2023-03-10T15:11:37.324Z,62.60
2023-03-10T15:14:18.739Z,118.30
2023-03-10T15:16:50.213Z,107.60
2023-03-10T15:19:26.903Z,84.80
2023-03-10T15:21:56.497Z,80.40
2023-03-10T15:24:26.849Z,50.40
2023-03-10T15:26:58.481Z,45.60
2023-03-10T15:29:31.835Z,26.00
2023-03-10T15:32:02.797Z,61.00
2023-03-10T15:34:35.401Z,43.50
2023-03-10T15:37:08.945Z,50.80
2023-03-10T15:39:40.264Z,49.30
2023-03-10T15:42:12.979Z,45.10
2023-03-10T15:44:42.919Z,41.30
2023-03-10T15:47:14.605Z,23.80
2023-03-10T15:49:45.493Z,22.20
2023-03-10T15:52:20.782Z,85.30
2023-03-10T15:54:52.160Z,90.00
2023-03-10T15:57:21.716Z,95.40
2023-03-10T15:59:52.316Z,71.60
2023-03-10T16:02:23.664Z,78.30
2023-03-10T16:04:52.896Z,89.10
2023-03-10T16:07:22.935Z,72.30
2023-03-10T16:09:58.840Z,115.10
2023-03-10T16:12:29.599Z,114.00
2023-03-10T16:15:03.083Z,43.10
2023-03-10T16:17:34.872Z,28.40
2023-03-10T16:20:10.528Z,37.50
2023-03-10T16:22:43.272Z,82.10
2023-03-10T16:25:15.864Z,57.70
2023-03-10T16:27:49.239Z,123.40
2023-03-10T16:30:19.778Z,153.20
2023-03-10T16:32:53.000Z,92.30
2023-03-10T16:35:29.885Z,101.80
2023-03-10T16:38:05.347Z,120.30
2023-03-10T16:40:38.364Z,146.90
2023-03-10T16:43:10.835Z,138.90
2023-03-10T16:45:41.404Z,140.30
2023-03-10T16:48:13.409Z,114.30
2023-03-10T16:50:48.731Z,66.10
2023-03-10T16:53:22.526Z,57.60
2023-03-10T16:56:03.567Z,51.70
2023-03-10T16:58:37.251Z,46.20
2023-03-10T17:01:11.867Z,41.90
2023-03-10T17:06:21.022Z,117.70
2023-03-10T17:08:58.265Z,58.70
2023-03-10T17:11:32.682Z,62.00
2023-03-10T17:14:08.924Z,82.00
2023-03-10T17:16:43.747Z,66.40
2023-03-10T17:19:20.804Z,62.40
2023-03-10T17:21:54.446Z,49.90
2023-03-10T17:24:28.188Z,55.20
2023-03-10T17:27:03.295Z,54.70
2023-03-10T17:29:35.734Z,64.50
2023-03-10T17:32:07.005Z,49.40
2023-03-10T17:34:37.302Z,40.40
2023-03-10T17:37:11.177Z,39.60
2023-03-10T17:39:41.853Z,40.90
2023-03-10T17:42:14.809Z,54.40
2023-03-10T17:44:49.561Z,74.50
2023-03-10T17:47:24.171Z,110.40
2023-03-10T17:50:00.476Z,53.40
2023-03-10T17:52:34.899Z,62.60
2023-03-10T17:55:06.124Z,95.60
2023-03-10T17:57:39.076Z,68.60
2023-03-10T18:00:12.360Z,52.50
2023-03-10T18:02:45.511Z,72.00
2023-03-10T18:05:18.892Z,78.50
2023-03-10T18:07:55.436Z,73.50
2023-03-10T18:10:26.926Z,51.00
2023-03-10T18:12:59.025Z,53.50
2023-03-10T18:15:29.399Z,42.60
2023-03-10T18:18:03.604Z,53.80
2023-03-10T18:20:39.003Z,87.20
2023-03-10T18:23:13.632Z,99.60
2023-03-10T18:25:47.072Z,91.60
2023-03-10T18:28:19.612Z,51.10
2023-03-10T18:30:54.180Z,53.10
2023-03-10T18:33:27.686Z,65.30
2023-03-10T18:36:04.204Z,73.50
2023-03-10T18:38:34.946Z,76.90
2023-03-10T18:41:07.827Z,97.00
2023-03-10T18:43:40.291Z,86.30
2023-03-10T18:46:12.610Z,93.10
2023-03-10T18:48:44.882Z,70.80
2023-03-10T18:51:17.697Z,57.50
2023-03-10T18:53:49.198Z,63.60
2023-03-10T18:56:26.442Z,43.70
2023-03-10T18:58:58.963Z,43.30
2023-03-10T19:01:29.461Z,49.00
2023-03-10T19:04:03.533Z,47.10
2023-03-10T19:06:35.608Z,42.20
2023-03-10T19:09:09.049Z,35.60
2023-03-10T19:11:42.750Z,30.90
2023-03-10T19:14:18.964Z,42.90
2023-03-10T19:16:55.626Z,35.10
2023-03-10T19:19:30.286Z,41.80
2023-03-10T19:22:05.198Z,40.60
2023-03-10T19:24:36.915Z,35.50
2023-03-10T19:27:11.264Z,44.90
2023-03-10T19:29:42.562Z,47.20
2023-03-10T19:32:15.313Z,35.20
2023-03-10T19:34:49.155Z,35.70
2023-03-10T19:37:23.901Z,34.50
2023-03-10T19:39:59.165Z,45.60
2023-03-10T19:42:36.050Z,63.10
2023-03-10T19:45:08.612Z,60.40
2023-03-10T19:47:39.957Z,57.60
2023-03-10T19:50:14.373Z,47.80
2023-03-10T19:52:48.564Z,39.60
2023-03-10T19:55:24.168Z,51.60
2023-03-10T19:57:59.566Z,58.10
2023-03-10T20:00:37.761Z,38.70
2023-03-10T20:03:12.303Z,43.60
2023-03-10T20:05:44.537Z,50.80
2023-03-10T20:08:19.330Z,50.20
2023-03-10T20:10:55.588Z,50.80
2023-03-10T20:13:31.326Z,60.10
2023-03-10T20:16:03.269Z,50.80
2023-03-10T20:18:39.729Z,57.10
2023-03-10T20:21:12.639Z,54.40
2023-03-10T20:23:48.346Z,71.70
2023-03-10T20:26:20.472Z,81.00
2023-03-10T20:28:55.067Z,97.30
2023-03-10T20:31:29.296Z,81.10
2023-03-10T20:34:01.882Z,51.60
2023-03-10T20:36:34.267Z,34.80
2023-03-10T20:39:12.342Z,35.10
2023-03-10T20:41:45.113Z,38.40
2023-03-10T20:44:22.284Z,32.20
2023-03-10T20:46:56.653Z,29.80
2023-03-10T20:49:33.415Z,37.40
2023-03-10T20:52:05.665Z,105.10
2023-03-10T20:54:40.512Z,442.40
2023-03-10T20:57:17.498Z,97.10
2023-03-10T20:59:50.007Z,197.30
2023-03-10T21:02:27.447Z,83.90
2023-03-10T21:05:01.480Z,74.00
2023-03-10T21:07:32.389Z,58.00
2023-03-10T21:10:05.977Z,73.10
2023-03-10T21:12:36.881Z,37.00
2023-03-10T21:15:09.793Z,54.60
2023-03-10T21:17:41.395Z,61.00
2023-03-10T21:20:15.911Z,42.70
2023-03-10T21:22:47.579Z,49.80
2023-03-10T21:25:21.228Z,29.50
2023-03-10T21:27:59.256Z,30.70
2023-03-10T21:30:33.912Z,28.00
2023-03-10T21:33:04.331Z,31.70
2023-03-10T21:35:38.872Z,32.40
2023-03-10T21:38:12.020Z,34.40
2023-03-10T21:40:42.421Z,24.80
2023-03-10T21:43:14.420Z,40.90
2023-03-10T21:45:46.988Z,56.70
2023-03-10T21:48:16.953Z,54.50
2023-03-10T21:50:47.677Z,36.40
2023-03-10T21:53:18.998Z,47.20
2023-03-10T21:55:50.185Z,35.50
2023-03-10T21:58:23.750Z,37.70
2023-03-10T22:00:56.347Z,33.40
2023-03-10T22:03:25.636Z,31.20
2023-03-10T22:05:57.365Z,29.50
2023-03-10T22:08:30.422Z,28.10
2023-03-10T22:11:00.655Z,27.80
2023-03-10T22:13:33.761Z,31.90
2023-03-10T22:16:05.316Z,33.40
2023-03-10T22:18:39.015Z,29.30
2023-03-10T22:21:09.273Z,30.80
2023-03-10T22:23:45.175Z,27.80
2023-03-10T22:26:17.538Z,27.40
2023-03-10T22:28:48.442Z,29.00
2023-03-10T22:31:19.598Z,23.70
2023-03-10T22:34:21.977Z,32.70
2023-03-10T22:36:44.475Z,30.80
2023-03-10T22:39:18.088Z,27.60
2023-03-10T22:41:51.193Z,30.30
2023-03-10T22:44:23.359Z,24.10
2023-03-10T22:46:57.057Z,29.40
2023-03-10T22:49:28.731Z,25.80
2023-03-10T22:52:09.906Z,26.10
2023-03-10T22:55:06.821Z,29.80
2023-03-10T22:57:54.863Z,28.10
2023-03-10T23:00:41.343Z,29.30
2023-03-10T23:06:23.627Z,28.10
2023-03-10T23:08:57.328Z,36.40
2023-03-10T23:11:26.867Z,38.90
2023-03-10T23:14:08.549Z,57.00
2023-03-10T23:16:38.851Z,43.70
2023-03-10T23:19:09.013Z,68.40
2023-03-10T23:21:42.491Z,52.20
2023-03-10T23:24:14.323Z,63.60
2023-03-10T23:26:44.592Z,68.90
2023-03-10T23:29:17.798Z,49.20
2023-03-10T23:32:23.743Z,33.80
2023-03-10T23:35:09.217Z,27.60
2023-03-10T23:37:39.633Z,50.00
2023-03-10T23:40:14.650Z,26.60
2023-03-10T23:42:45.382Z,26.90
2023-03-10T23:45:20.529Z,20.90
2023-03-10T23:47:52.230Z,22.10
2023-03-10T23:50:30.051Z,37.60
2023-03-10T23:53:00.850Z,29.40
2023-03-10T23:55:36.163Z,19.10
2023-03-10T23:58:06.769Z,23.70
